Time;durP1;ratioP1;P1;durP2;ratioP2;P2;SDS_P1;SDS_P2;PMS_P1;PMS_P2;Temp;Humidity;BMP_temperature;BMP_pressure;BME280_temperature;BME280_humidity;BME280_pressure;Samples;Min_cycle;Max_cycle;Signal;HPM_P1;HPM_P2
2021/10/24 00:01:39;;;;;;;;;;;5.60;99.90;;;;;;5106202;28;19955;-76
2021/10/24 00:04:06;;;;;;;;;;;5.50;99.90;;;;;;5108985;27;19955;-76
2021/10/24 00:06:32;;;;;;;;;;;5.50;99.90;;;;;;5110432;27;19950;-76
2021/10/24 00:08:59;;;;;;;;;;;5.50;99.90;;;;;;5102374;27;19938;-74
2021/10/24 00:11:25;;;;;;;;;;;5.50;99.90;;;;;;5109273;27;19924;-73
2021/10/24 00:13:52;;;;;;;;;;;5.50;99.90;;;;;;5093881;28;19930;-74
2021/10/24 00:16:20;;;;;;;;;;;5.40;99.90;;;;;;5096668;27;19965;-74
2021/10/24 00:18:47;;;;;;;;;;;5.30;99.90;;;;;;5094213;27;19942;-74
2021/10/24 00:21:13;;;;;;;;;;;5.30;99.90;;;;;;5094998;28;19971;-74
2021/10/24 00:23:41;;;;;;;;;;;5.30;99.90;;;;;;5098304;28;20305;-75
2021/10/24 00:26:07;;;;;;;;;;;5.20;99.90;;;;;;5098345;28;19955;-74
2021/10/24 00:28:34;;;;;;;;;;;5.20;99.90;;;;;;5097047;27;19941;-74
2021/10/24 00:31:01;;;;;;;;;;;5.20;99.90;;;;;;5102239;27;20607;-74
2021/10/24 00:33:30;;;;;;;;;;;5.30;99.90;;;;;;5099611;27;20011;-75
2021/10/24 00:35:56;;;;;;;;;;;5.30;99.90;;;;;;5106331;27;20046;-75
2021/10/24 00:38:23;;;;;;;;;;;5.30;99.90;;;;;;5105041;27;19953;-75
2021/10/24 00:40:50;;;;;;;;;;;5.30;99.90;;;;;;5103250;27;19952;-73
2021/10/24 00:43:19;;;;;;;;;;;5.30;99.90;;;;;;5097007;28;19940;-73
2021/10/24 00:45:46;;;;;;;;;;;5.30;99.90;;;;;;5100883;28;20042;-74
2021/10/24 00:48:12;;;;;;;;;;;5.30;99.90;;;;;;5099604;27;19989;-74
2021/10/24 00:50:41;;;;;;;;;;;5.30;99.90;;;;;;5097302;28;20019;-75
2021/10/24 00:53:08;;;;;;;;;;;5.40;99.90;;;;;;5093694;28;19930;-75
2021/10/24 00:55:35;;;;;;;;;;;5.40;99.90;;;;;;5096611;27;19935;-76
2021/10/24 00:58:03;;;;;;;;;;;5.40;99.90;;;;;;5096037;28;19936;-76
2021/10/24 01:00:29;;;;;;;;;;;5.40;99.90;;;;;;5096422;28;19981;-76
2021/10/24 01:02:56;;;;;;;;;;;5.40;99.90;;;;;;5091908;28;20313;-74
2021/10/24 01:05:22;;;;;;;;;;;5.40;99.90;;;;;;5092449;28;20259;-74
2021/10/24 01:07:51;;;;;;;;;;;5.30;99.90;;;;;;5098035;28;19956;-74
2021/10/24 01:10:18;;;;;;;;;;;5.30;99.90;;;;;;5097203;28;19930;-74
2021/10/24 01:12:45;;;;;;;;;;;5.30;99.90;;;;;;5097385;28;20434;-73
2021/10/24 01:15:12;;;;;;;;;;;5.30;99.90;;;;;;5102555;28;19924;-75
2021/10/24 01:17:39;;;;;;;;;;;5.30;99.90;;;;;;5099222;28;20519;-74
2021/10/24 01:20:07;;;;;;;;;;;5.30;99.90;;;;;;5093482;28;20041;-73
2021/10/24 01:22:36;;;;;;;;;;;5.30;99.90;;;;;;5095206;28;20367;-74
2021/10/24 01:25:03;;;;;;;;;;;5.30;99.90;;;;;;5095206;28;19931;-74
2021/10/24 01:27:30;;;;;;;;;;;5.20;99.90;;;;;;5097254;28;19928;-75
2021/10/24 01:29:59;;;;;;;;;;;5.20;99.90;;;;;;5094449;28;20404;-74
2021/10/24 01:32:26;;;;;;;;;;;5.20;99.90;;;;;;5087977;28;20838;-74
2021/10/24 01:34:53;;;;;;;;;;;5.20;99.90;;;;;;5103790;28;19924;-74
2021/10/24 01:37:19;;;;;;;;;;;5.20;99.90;;;;;;5092099;28;20283;-73
2021/10/24 01:39:47;;;;;;;;;;;5.10;99.90;;;;;;5097994;28;19924;-73
2021/10/24 01:42:14;;;;;;;;;;;5.00;99.90;;;;;;5097993;27;19932;-74
2021/10/24 01:44:41;;;;;;;;;;;5.00;99.90;;;;;;5102184;27;19987;-74
2021/10/24 01:47:07;;;;;;;;;;;5.10;99.90;;;;;;5104937;27;19960;-72
2021/10/24 01:49:34;;;;;;;;;;;5.00;99.90;;;;;;5110612;27;19930;-72
2021/10/24 01:52:01;;;;;;;;;;;5.00;99.90;;;;;;5102839;27;19962;-73
2021/10/24 01:54:27;;;;;;;;;;;5.00;99.90;;;;;;5111218;27;20060;-72
2021/10/24 01:56:55;;;;;;;;;;;5.10;99.90;;;;;;5100843;27;19943;-74
2021/10/24 01:59:22;;;;;;;;;;;5.00;99.90;;;;;;5099185;28;19931;-73
2021/10/24 02:01:49;;;;;;;;;;;5.00;99.90;;;;;;5104559;27;19953;-73
2021/10/24 02:04:15;;;;;;;;;;;5.00;99.90;;;;;;5102530;27;19924;-74
2021/10/24 02:06:42;;;;;;;;;;;4.90;99.90;;;;;;5109095;27;19924;-73
2021/10/24 02:09:09;;;;;;;;;;;4.90;99.90;;;;;;5104510;27;19943;-72
2021/10/24 02:11:35;;;;;;;;;;;4.80;99.90;;;;;;5097469;27;20027;-71
2021/10/24 02:14:04;;;;;;;;;;;4.80;99.90;;;;;;5096715;27;19940;-72
2021/10/24 02:16:31;;;;;;;;;;;4.80;99.90;;;;;;5117104;27;20041;-72
2021/10/24 02:18:58;;;;;;;;;;;4.80;99.90;;;;;;5098108;27;19942;-72
2021/10/24 02:21:24;;;;;;;;;;;4.90;99.90;;;;;;5104546;27;19957;-72
2021/10/24 02:23:51;;;;;;;;;;;4.90;99.90;;;;;;5098759;27;19940;-72
2021/10/24 02:26:18;;;;;;;;;;;4.90;99.90;;;;;;5103112;27;19941;-72
2021/10/24 02:28:44;;;;;;;;;;;4.70;99.90;;;;;;5101348;27;19942;-72
2021/10/24 02:31:12;;;;;;;;;;;4.80;99.90;;;;;;5109424;28;19939;-72
2021/10/24 02:33:39;;;;;;;;;;;4.90;99.90;;;;;;5103064;27;19943;-73
2021/10/24 02:36:05;;;;;;;;;;;4.80;99.90;;;;;;5111274;27;19939;-72
2021/10/24 02:38:32;;;;;;;;;;;4.80;99.90;;;;;;5100711;27;19944;-72
2021/10/24 02:40:59;;;;;;;;;;;4.90;99.90;;;;;;5097155;28;19951;-72
2021/10/24 02:43:26;;;;;;;;;;;4.80;99.90;;;;;;5101294;28;19936;-72
2021/10/24 02:45:52;;;;;;;;;;;4.90;99.90;;;;;;5109260;27;19943;-72
2021/10/24 02:48:20;;;;;;;;;;;4.80;99.90;;;;;;5105574;27;20390;-72
2021/10/24 02:50:47;;;;;;;;;;;4.80;99.90;;;;;;5111102;27;19924;-71
2021/10/24 02:53:13;;;;;;;;;;;4.80;99.90;;;;;;5106879;27;19965;-71
2021/10/24 02:55:40;;;;;;;;;;;4.70;99.90;;;;;;5107634;27;19962;-72
2021/10/24 02:58:07;;;;;;;;;;;4.80;99.90;;;;;;5102069;28;20178;-72
2021/10/24 03:00:33;;;;;;;;;;;4.80;99.90;;;;;;5108298;27;19944;-71
2021/10/24 03:03:00;;;;;;;;;;;4.80;99.90;;;;;;5097796;28;19941;-72
2021/10/24 03:05:28;;;;;;;;;;;4.80;99.90;;;;;;5109949;27;19930;-72
2021/10/24 03:07:55;;;;;;;;;;;4.80;99.90;;;;;;5103137;27;19956;-71
2021/10/24 03:10:21;;;;;;;;;;;4.80;99.90;;;;;;5101750;28;19943;-71
2021/10/24 03:12:48;;;;;;;;;;;4.70;99.90;;;;;;5107903;28;20011;-71
2021/10/24 03:15:15;;;;;;;;;;;4.80;99.90;;;;;;5102382;27;19934;-71
2021/10/24 03:17:41;;;;;;;;;;;4.80;99.90;;;;;;5102964;27;20035;-72
2021/10/24 03:20:08;;;;;;;;;;;4.80;99.90;;;;;;5108352;28;20367;-72
2021/10/24 03:22:36;;;;;;;;;;;4.80;99.90;;;;;;5102455;27;19928;-72
2021/10/24 03:25:03;;;;;;;;;;;4.70;99.90;;;;;;5094279;27;19931;-73
2021/10/24 03:27:30;;;;;;;;;;;4.80;99.90;;;;;;5107431;27;19962;-73
2021/10/24 03:29:58;;;;;;;;;;;4.70;99.90;;;;;;5105397;27;19923;-73
2021/10/24 03:32:25;;;;;;;;;;;4.70;99.90;;;;;;5111018;27;20006;-73
2021/10/24 03:34:52;;;;;;;;;;;4.60;99.90;;;;;;5103661;27;19924;-73
2021/10/24 03:37:18;;;;;;;;;;;4.60;99.90;;;;;;5100511;27;19930;-72
2021/10/24 03:39:46;;;;;;;;;;;4.60;99.90;;;;;;5101187;28;19928;-73
2021/10/24 03:42:13;;;;;;;;;;;4.60;99.90;;;;;;5096889;27;19942;-73
2021/10/24 03:44:40;;;;;;;;;;;4.50;99.90;;;;;;5100381;27;19923;-73
2021/10/24 03:47:06;;;;;;;;;;;4.60;99.90;;;;;;5107643;27;20032;-73
2021/10/24 03:49:33;;;;;;;;;;;4.50;99.90;;;;;;5104029;28;19931;-74
2021/10/24 03:51:59;;;;;;;;;;;4.40;99.90;;;;;;5106740;27;19924;-73
2021/10/24 03:54:26;;;;;;;;;;;4.40;99.90;;;;;;5096738;28;19924;-73
2021/10/24 03:56:54;;;;;;;;;;;4.40;99.90;;;;;;5113914;27;19923;-73
2021/10/24 03:59:21;;;;;;;;;;;4.40;99.90;;;;;;5102589;27;19923;-73
2021/10/24 04:01:48;;;;;;;;;;;4.30;99.90;;;;;;5106060;27;19969;-73
2021/10/24 04:04:14;;;;;;;;;;;4.30;99.90;;;;;;5094884;28;19954;-73
2021/10/24 04:06:41;;;;;;;;;;;4.40;99.90;;;;;;5100048;27;20458;-73
2021/10/24 04:09:08;;;;;;;;;;;4.30;99.90;;;;;;5111809;27;20375;-73
2021/10/24 04:11:35;;;;;;;;;;;4.30;99.90;;;;;;5105906;28;19931;-73
2021/10/24 04:14:03;;;;;;;;;;;4.20;99.90;;;;;;5100708;28;19938;-74
2021/10/24 04:16:29;;;;;;;;;;;4.20;99.90;;;;;;5099471;27;19927;-73
2021/10/24 04:18:56;;;;;;;;;;;4.10;99.90;;;;;;5100261;27;19931;-73
2021/10/24 04:21:23;;;;;;;;;;;4.10;99.90;;;;;;5104342;27;20294;-73
2021/10/24 04:23:49;;;;;;;;;;;4.10;99.90;;;;;;5103825;28;20446;-74
2021/10/24 04:26:16;;;;;;;;;;;4.10;99.90;;;;;;5107148;27;20289;-74
2021/10/24 04:28:43;;;;;;;;;;;4.20;99.90;;;;;;5092998;27;20050;-74
2021/10/24 04:31:11;;;;;;;;;;;4.10;99.90;;;;;;5110645;27;19923;-73
2021/10/24 04:33:37;;;;;;;;;;;4.20;99.90;;;;;;5097039;28;19930;-73
2021/10/24 04:36:04;;;;;;;;;;;4.20;99.90;;;;;;5100311;28;20367;-73
2021/10/24 04:38:32;;;;;;;;;;;4.10;99.90;;;;;;5105501;27;19923;-73
2021/10/24 04:40:58;;;;;;;;;;;4.10;99.90;;;;;;5100675;27;19939;-73
2021/10/24 04:43:25;;;;;;;;;;;4.20;99.90;;;;;;5097439;27;19924;-74
2021/10/24 04:45:52;;;;;;;;;;;4.20;99.90;;;;;;5102403;27;19924;-73
2021/10/24 04:48:20;;;;;;;;;;;4.10;99.90;;;;;;5097968;27;20440;-74
2021/10/24 04:50:47;;;;;;;;;;;4.10;99.90;;;;;;5106786;27;20035;-73
2021/10/24 04:53:14;;;;;;;;;;;4.00;99.90;;;;;;5099515;27;20340;-74
2021/10/24 04:55:43;;;;;;;;;;;4.10;99.90;;;;;;5112971;27;19945;-74
2021/10/24 04:58:10;;;;;;;;;;;4.10;99.90;;;;;;5101011;28;19930;-74
2021/10/24 05:00:37;;;;;;;;;;;4.00;99.90;;;;;;5104403;27;19942;-73
2021/10/24 05:03:03;;;;;;;;;;;4.00;99.90;;;;;;5103187;28;19931;-74
2021/10/24 05:05:31;;;;;;;;;;;4.00;99.90;;;;;;5117091;27;19930;-74
2021/10/24 05:07:58;;;;;;;;;;;3.90;99.90;;;;;;5107795;27;19924;-73
2021/10/24 05:10:25;;;;;;;;;;;3.90;99.90;;;;;;5098541;28;20693;-73
2021/10/24 05:12:51;;;;;;;;;;;3.80;99.90;;;;;;5093215;28;19942;-74
2021/10/24 05:15:19;;;;;;;;;;;3.80;99.90;;;;;;5098771;28;21408;-73
2021/10/24 05:17:45;;;;;;;;;;;3.80;99.90;;;;;;5100564;28;20071;-73
2021/10/24 05:20:12;;;;;;;;;;;3.80;99.90;;;;;;5103981;28;19958;-74
2021/10/24 05:22:40;;;;;;;;;;;3.70;99.90;;;;;;5107001;28;19941;-73
2021/10/24 05:25:07;;;;;;;;;;;3.70;99.90;;;;;;5106891;28;19924;-73
2021/10/24 05:27:34;;;;;;;;;;;3.60;99.90;;;;;;5108724;28;19931;-74
2021/10/24 05:30:01;;;;;;;;;;;3.50;99.90;;;;;;5100708;28;19928;-73
2021/10/24 05:32:27;;;;;;;;;;;3.60;99.90;;;;;;5108461;28;20375;-74
2021/10/24 05:34:54;;;;;;;;;;;3.50;99.90;;;;;;5110186;28;19997;-73
2021/10/24 05:37:21;;;;;;;;;;;3.50;99.90;;;;;;5109477;28;20600;-73
2021/10/24 05:39:48;;;;;;;;;;;3.50;99.90;;;;;;5104814;28;20302;-74
2021/10/24 05:42:15;;;;;;;;;;;3.50;99.90;;;;;;5102121;28;20264;-74
2021/10/24 05:44:43;;;;;;;;;;;3.50;99.90;;;;;;5107971;28;19946;-73
2021/10/24 05:47:10;;;;;;;;;;;3.50;99.90;;;;;;5101429;28;19942;-74
2021/10/24 05:49:36;;;;;;;;;;;3.40;99.90;;;;;;5104068;28;20785;-73
2021/10/24 05:52:03;;;;;;;;;;;3.40;99.90;;;;;;5107990;28;19931;-73
2021/10/24 05:54:30;;;;;;;;;;;3.40;99.90;;;;;;5105405;28;19958;-73
2021/10/24 05:56:58;;;;;;;;;;;3.40;99.90;;;;;;5106593;28;20384;-73
2021/10/24 05:59:24;;;;;;;;;;;3.40;99.90;;;;;;5107128;28;19953;-72
2021/10/24 06:01:51;;;;;;;;;;;3.40;99.90;;;;;;5102940;28;19934;-73
2021/10/24 06:04:18;;;;;;;;;;;3.40;99.90;;;;;;5102253;28;20298;-73
2021/10/24 06:06:44;;;;;;;;;;;3.50;99.90;;;;;;5112633;28;19971;-73
2021/10/24 06:09:11;;;;;;;;;;;3.50;99.90;;;;;;5107841;28;19936;-74
2021/10/24 06:11:47;;;;;;;;;;;3.60;99.90;;;;;;5101699;28;19935;-74
2021/10/24 06:14:15;;;;;;;;;;;3.70;99.90;;;;;;5096007;28;19989;-75
2021/10/24 06:16:42;;;;;;;;;;;3.60;99.90;;;;;;5099527;28;19924;-74
2021/10/24 06:19:08;;;;;;;;;;;3.50;99.90;;;;;;5095163;28;20331;-73
2021/10/24 06:21:35;;;;;;;;;;;3.50;99.90;;;;;;5099158;28;19946;-74
2021/10/24 06:24:02;;;;;;;;;;;3.40;99.90;;;;;;5101845;28;20390;-74
2021/10/24 06:26:29;;;;;;;;;;;3.50;99.90;;;;;;5095899;28;19923;-73
2021/10/24 06:28:56;;;;;;;;;;;3.50;99.90;;;;;;5098237;27;20082;-75
2021/10/24 06:31:24;;;;;;;;;;;3.50;99.90;;;;;;5097271;28;19923;-76
2021/10/24 06:33:52;;;;;;;;;;;3.50;99.90;;;;;;5102408;28;20022;-76
2021/10/24 06:36:19;;;;;;;;;;;3.50;99.90;;;;;;5092001;28;20398;-76
2021/10/24 06:38:46;;;;;;;;;;;3.60;99.90;;;;;;5092644;28;22213;-76
2021/10/24 06:41:16;;;;;;;;;;;3.60;99.90;;;;;;5096493;28;19924;-76
2021/10/24 06:43:49;;;;;;;;;;;3.60;99.90;;;;;;5102028;28;19997;-76
2021/10/24 06:46:15;;;;;;;;;;;3.70;99.90;;;;;;5104418;28;19938;-76
2021/10/24 06:48:43;;;;;;;;;;;3.70;99.90;;;;;;5094557;28;19924;-76
2021/10/24 06:51:11;;;;;;;;;;;3.80;99.90;;;;;;5096149;28;19924;-76
2021/10/24 06:53:37;;;;;;;;;;;3.80;99.90;;;;;;5093772;28;19928;-76
2021/10/24 06:56:04;;;;;;;;;;;3.90;99.90;;;;;;5100885;28;20393;-76
2021/10/24 06:58:31;;;;;;;;;;;3.80;99.90;;;;;;5101540;28;19924;-76
2021/10/24 07:00:57;;;;;;;;;;;3.80;99.90;;;;;;5095026;28;19931;-77
2021/10/24 07:03:24;;;;;;;;;;;3.90;99.90;;;;;;5092771;28;19924;-76
2021/10/24 07:05:52;;;;;;;;;;;4.00;99.90;;;;;;5096792;28;19924;-77
2021/10/24 07:08:20;;;;;;;;;;;4.00;99.90;;;;;;5094852;28;19932;-76
2021/10/24 07:10:46;;;;;;;;;;;4.10;99.90;;;;;;5098878;27;19932;-76
2021/10/24 07:13:13;;;;;;;;;;;4.10;99.90;;;;;;5103773;27;20531;-75
2021/10/24 07:15:40;;;;;;;;;;;4.10;99.90;;;;;;5108758;27;19934;-76
2021/10/24 07:18:06;;;;;;;;;;;4.20;99.90;;;;;;5109420;27;19924;-75
2021/10/24 07:20:33;;;;;;;;;;;4.30;99.90;;;;;;5101908;27;19959;-76
2021/10/24 07:23:02;;;;;;;;;;;4.30;99.90;;;;;;5103412;27;20014;-76
2021/10/24 07:25:32;;;;;;;;;;;4.40;99.90;;;;;;5095765;28;19934;-75
2021/10/24 07:27:59;;;;;;;;;;;4.50;99.90;;;;;;5101947;28;21596;-76
2021/10/24 07:30:26;;;;;;;;;;;4.60;99.90;;;;;;5096822;28;19923;-77
2021/10/24 07:32:53;;;;;;;;;;;4.70;99.90;;;;;;5092762;28;20023;-77
2021/10/24 07:35:21;;;;;;;;;;;4.70;99.90;;;;;;5097601;28;19931;-77
2021/10/24 07:37:49;;;;;;;;;;;4.80;99.90;;;;;;5098468;28;19964;-76
2021/10/24 07:40:18;;;;;;;;;;;4.90;99.90;;;;;;5100081;28;19923;-76
2021/10/24 07:42:45;;;;;;;;;;;5.00;99.90;;;;;;5098878;28;19932;-76
2021/10/24 07:45:12;;;;;;;;;;;5.10;99.90;;;;;;5052465;22;19933;-76
2021/10/24 07:47:39;;;;;;;;;;;5.30;99.90;;;;;;5006679;28;19930;-75
2021/10/24 07:50:07;;;;;;;;;;;5.40;99.90;;;;;;5005275;28;19961;-75
2021/10/24 07:52:33;;;;;;;;;;;5.50;99.90;;;;;;5004935;28;19968;-75
2021/10/24 07:55:00;;;;;;;;;;;5.60;99.90;;;;;;5004004;28;20013;-75
2021/10/24 07:57:28;;;;;;;;;;;7.80;99.90;;;;;;5003341;28;20005;-76
2021/10/24 07:59:55;;;;;;;;;;;10.80;99.90;;;;;;5003623;28;19936;-77
2021/10/24 08:02:24;;;;;;;;;;;12.30;99.90;;;;;;5004785;28;19939;-76
2021/10/24 08:04:51;;;;;;;;;;;14.30;99.90;;;;;;5006339;28;19926;-78
2021/10/24 08:07:18;;;;;;;;;;;16.00;99.90;;;;;;5004999;28;19925;-79
2021/10/24 08:09:45;;;;;;;;;;;17.20;80.00;;;;;;5004561;28;19925;-75
2021/10/24 08:12:12;;;;;;;;;;;18.30;65.70;;;;;;5005411;28;19961;-75
2021/10/24 08:14:40;;;;;;;;;;;18.70;56.20;;;;;;5003570;28;19936;-76
2021/10/24 08:17:07;;;;;;;;;;;18.80;51.20;;;;;;5003454;28;20008;-75
2021/10/24 08:19:34;;;;;;;;;;;18.70;49.50;;;;;;4999405;28;20372;-76
2021/10/24 08:22:01;;;;;;;;;;;18.60;47.60;;;;;;5005624;28;20381;-76
2021/10/24 08:24:28;;;;;;;;;;;19.10;46.50;;;;;;5000186;28;19929;-75
2021/10/24 08:26:55;;;;;;;;;;;19.80;43.40;;;;;;5003550;28;19925;-75
2021/10/24 08:29:22;;;;;;;;;;;19.20;41.60;;;;;;5001545;28;19942;-75
2021/10/24 08:31:52;;;;;;;;;;;18.50;41.10;;;;;;4995794;28;19929;-75
2021/10/24 08:34:19;;;;;;;;;;;17.80;43.00;;;;;;4999002;28;19949;-75
2021/10/24 08:36:47;;;;;;;;;;;17.50;44.30;;;;;;5002892;28;19925;-76
2021/10/24 08:39:14;;;;;;;;;;;18.00;44.30;;;;;;4995178;28;20461;-75
2021/10/24 08:41:41;;;;;;;;;;;18.50;43.00;;;;;;4995030;28;20120;-75
2021/10/24 08:44:08;;;;;;;;;;;19.00;42.10;;;;;;4999611;28;19929;-75
2021/10/24 08:46:35;;;;;;;;;;;19.40;40.90;;;;;;4998993;28;19925;-75
2021/10/24 08:49:03;;;;;;;;;;;19.10;39.40;;;;;;5001143;28;20395;-75
2021/10/24 08:51:30;;;;;;;;;;;18.90;39.50;;;;;;5005392;28;19926;-76
2021/10/24 08:53:59;;;;;;;;;;;18.40;40.00;;;;;;4993850;28;19961;-76
2021/10/24 08:56:29;;;;;;;;;;;18.50;40.80;;;;;;4992137;28;20443;-76
2021/10/24 08:58:56;;;;;;;;;;;18.80;40.10;;;;;;4994870;28;20028;-76
2021/10/24 09:01:23;;;;;;;;;;;18.20;40.20;;;;;;4991933;28;20346;-76
2021/10/24 09:04:04;;;;;;;;;;;17.90;40.90;;;;;;4991646;28;19952;-76
2021/10/24 09:06:47;;;;;;;;;;;18.30;40.90;;;;;;4990974;28;19929;-74
2021/10/24 09:09:14;;;;;;;;;;;17.90;39.90;;;;;;4993432;28;20388;-76
2021/10/24 09:11:44;;;;;;;;;;;17.60;41.20;;;;;;4992581;28;19925;-76
2021/10/24 09:14:12;;;;;;;;;;;18.10;41.70;;;;;;4991776;28;19930;-75
2021/10/24 09:16:51;;;;;;;;;;;18.00;40.80;;;;;;4992044;28;20037;-75
2021/10/24 09:19:19;;;;;;;;;;;16.20;42.00;;;;;;4995091;28;19941;-75
2021/10/24 09:21:46;;;;;;;;;;;13.80;47.40;;;;;;4994253;28;19930;-75
2021/10/24 09:24:13;;;;;;;;;;;12.50;52.10;;;;;;4994062;28;19926;-76
2021/10/24 09:26:41;;;;;;;;;;;11.80;57.60;;;;;;4991715;28;20463;-76
2021/10/24 09:29:09;;;;;;;;;;;11.50;65.50;;;;;;4993499;28;20048;-77
2021/10/24 09:31:37;;;;;;;;;;;11.30;72.40;;;;;;4993596;28;20491;-77
2021/10/24 09:34:11;;;;;;;;;;;11.20;78.90;;;;;;4994122;28;19934;-77
2021/10/24 09:36:50;;;;;;;;;;;11.10;83.80;;;;;;4994394;28;20384;-77
2021/10/24 09:39:16;;;;;;;;;;;11.10;87.90;;;;;;4995308;28;20385;-76
2021/10/24 09:41:44;;;;;;;;;;;11.20;90.40;;;;;;4990837;28;19944;-76
2021/10/24 09:44:15;;;;;;;;;;;11.10;91.20;;;;;;4993865;28;19926;-77
2021/10/24 09:46:49;;;;;;;;;;;11.20;92.00;;;;;;4997244;28;19929;-77
2021/10/24 09:49:18;;;;;;;;;;;11.20;92.20;;;;;;4993150;28;19986;-77
2021/10/24 09:51:45;;;;;;;;;;;11.20;91.50;;;;;;4992503;28;19934;-77
2021/10/24 09:54:21;;;;;;;;;;;11.20;91.50;;;;;;4992893;28;19954;-77
2021/10/24 09:56:48;;;;;;;;;;;11.20;91.70;;;;;;4994066;28;20353;-77
2021/10/24 09:59:16;;;;;;;;;;;11.20;91.70;;;;;;4996611;28;19926;-77
2021/10/24 10:01:44;;;;;;;;;;;11.30;91.70;;;;;;4997505;28;19968;-76
2021/10/24 10:04:11;;;;;;;;;;;11.40;92.30;;;;;;5000508;28;20036;-77
2021/10/24 10:06:39;;;;;;;;;;;11.40;91.90;;;;;;4995694;28;20261;-77
2021/10/24 10:09:05;;;;;;;;;;;11.40;91.60;;;;;;4995503;28;20596;-77
2021/10/24 10:11:38;;;;;;;;;;;11.50;91.60;;;;;;4995785;28;19933;-76
2021/10/24 10:14:08;;;;;;;;;;;11.50;91.50;;;;;;4996655;28;19937;-77
2021/10/24 10:16:36;;;;;;;;;;;11.50;91.00;;;;;;4995708;28;19944;-75
2021/10/24 10:19:04;;;;;;;;;;;11.50;90.70;;;;;;4998148;28;19940;-76
2021/10/24 10:21:33;;;;;;;;;;;11.60;90.50;;;;;;4998849;28;19948;-76
2021/10/24 10:24:00;;;;;;;;;;;11.70;90.60;;;;;;4998032;28;20323;-74
2021/10/24 10:26:31;;;;;;;;;;;11.70;90.70;;;;;;4996429;28;19972;-74
2021/10/24 10:28:59;;;;;;;;;;;11.80;90.60;;;;;;4998059;28;19933;-75
2021/10/24 10:31:26;;;;;;;;;;;11.90;90.10;;;;;;4996317;28;20396;-75
2021/10/24 10:34:00;;;;;;;;;;;11.90;89.70;;;;;;4994292;28;19929;-74
2021/10/24 10:36:46;;;;;;;;;;;11.90;89.40;;;;;;4996722;28;20289;-74
2021/10/24 10:39:31;;;;;;;;;;;12.00;89.40;;;;;;4995191;28;19933;-73
2021/10/24 10:41:58;;;;;;;;;;;12.10;87.50;;;;;;4993714;28;19989;-74
2021/10/24 10:44:26;;;;;;;;;;;12.10;87.20;;;;;;4994084;28;20315;-73
2021/10/24 10:46:53;;;;;;;;;;;12.10;86.80;;;;;;4995386;28;19925;-74
2021/10/24 10:49:25;;;;;;;;;;;12.10;86.60;;;;;;4996427;28;20283;-73
2021/10/24 10:51:53;;;;;;;;;;;12.20;86.40;;;;;;4992152;28;20723;-73
2021/10/24 10:54:20;;;;;;;;;;;12.20;85.80;;;;;;4992244;28;20403;-73
2021/10/24 10:56:48;;;;;;;;;;;12.30;85.50;;;;;;4995868;28;20032;-73
2021/10/24 10:59:33;;;;;;;;;;;12.30;85.30;;;;;;4994918;28;20020;-73
2021/10/24 11:02:14;;;;;;;;;;;12.40;84.40;;;;;;4993039;28;20019;-73
2021/10/24 11:04:49;;;;;;;;;;;12.40;83.90;;;;;;4993248;28;19936;-73
2021/10/24 11:07:30;;;;;;;;;;;12.50;83.80;;;;;;4994044;28;19937;-74
2021/10/24 11:09:57;;;;;;;;;;;12.60;82.80;;;;;;4995337;28;19929;-73
2021/10/24 11:12:31;;;;;;;;;;;12.70;82.00;;;;;;4993139;28;19941;-73
2021/10/24 11:15:12;;;;;;;;;;;12.90;81.50;;;;;;4994310;28;20599;-73
2021/10/24 11:17:39;;;;;;;;;;;12.90;79.60;;;;;;5000547;28;19929;-73
2021/10/24 11:20:21;;;;;;;;;;;12.90;78.90;;;;;;5004433;28;19997;-73
2021/10/24 11:22:52;;;;;;;;;;;12.90;79.40;;;;;;5011853;28;20598;-73
2021/10/24 11:25:26;;;;;;;;;;;13.00;78.70;;;;;;4998495;28;20299;-73
2021/10/24 11:27:52;;;;;;;;;;;13.10;78.90;;;;;;5023267;28;20324;-73
2021/10/24 11:30:19;;;;;;;;;;;13.20;77.10;;;;;;5012387;28;19983;-73
2021/10/24 11:32:52;;;;;;;;;;;13.30;77.50;;;;;;5002049;28;19937;-75
2021/10/24 11:35:21;;;;;;;;;;;13.50;77.50;;;;;;4999069;28;19934;-74
2021/10/24 11:37:49;;;;;;;;;;;13.60;75.30;;;;;;5007044;28;20355;-74
2021/10/24 11:40:17;;;;;;;;;;;13.40;74.80;;;;;;4994282;28;19937;-74
2021/10/24 11:42:55;;;;;;;;;;;13.60;76.10;;;;;;4992821;28;20030;-74
2021/10/24 11:45:22;;;;;;;;;;;13.80;75.40;;;;;;4993027;28;19960;-73
2021/10/24 11:48:13;;;;;;;;;;;13.90;74.90;;;;;;4991291;28;20408;-74
2021/10/24 11:50:43;;;;;;;;;;;13.90;72.40;;;;;;5003196;28;20034;-73
2021/10/24 11:53:17;;;;;;;;;;;14.00;71.30;;;;;;5005148;28;19932;-74
2021/10/24 11:55:45;;;;;;;;;;;14.10;71.40;;;;;;5003896;28;19926;-75
2021/10/24 11:58:27;;;;;;;;;;;14.30;72.40;;;;;;5007064;28;19925;-75
2021/10/24 12:01:03;;;;;;;;;;;14.30;70.20;;;;;;5000713;28;20002;-75
2021/10/24 12:03:30;;;;;;;;;;;14.30;69.80;;;;;;5006162;28;19932;-75
2021/10/24 12:05:58;;;;;;;;;;;14.10;68.90;;;;;;5004565;28;20036;-74
2021/10/24 12:08:43;;;;;;;;;;;14.10;69.50;;;;;;5005822;28;19932;-73
2021/10/24 12:11:13;;;;;;;;;;;14.10;69.90;;;;;;4992942;28;19941;-73
2021/10/24 12:13:41;;;;;;;;;;;14.20;69.60;;;;;;4992554;28;20022;-74
2021/10/24 12:16:23;;;;;;;;;;;14.30;69.70;;;;;;4991710;28;19934;-74
2021/10/24 12:18:50;;;;;;;;;;;14.30;67.80;;;;;;4993693;28;19933;-73
2021/10/24 12:21:24;;;;;;;;;;;14.20;67.50;;;;;;4998930;28;19933;-73
2021/10/24 12:23:51;;;;;;;;;;;14.20;66.90;;;;;;4996490;28;19933;-77
2021/10/24 12:26:32;;;;;;;;;;;14.30;68.00;;;;;;4991153;28;20019;-74
2021/10/24 12:29:12;;;;;;;;;;;14.40;67.10;;;;;;4999371;28;20408;-74
2021/10/24 12:31:38;;;;;;;;;;;14.40;64.50;;;;;;5000045;28;19951;-75
2021/10/24 12:34:10;;;;;;;;;;;14.40;63.40;;;;;;5000052;28;19933;-75
2021/10/24 12:36:39;;;;;;;;;;;14.50;61.40;;;;;;5001624;28;19938;-76
2021/10/24 12:39:08;;;;;;;;;;;14.40;59.40;;;;;;4999386;28;19965;-75
2021/10/24 12:41:36;;;;;;;;;;;14.40;59.70;;;;;;5000089;28;19925;-75
2021/10/24 12:44:03;;;;;;;;;;;14.40;59.40;;;;;;5002488;28;19926;-76
2021/10/24 12:46:31;;;;;;;;;;;14.40;59.30;;;;;;5003801;28;19934;-76
2021/10/24 12:48:58;;;;;;;;;;;14.60;60.20;;;;;;5002538;28;20444;-73
2021/10/24 12:51:25;;;;;;;;;;;14.60;59.10;;;;;;5002461;28;19930;-74
2021/10/24 12:53:56;;;;;;;;;;;14.60;59.00;;;;;;4996195;28;20128;-73
2021/10/24 12:56:23;;;;;;;;;;;14.70;59.60;;;;;;4998831;28;19932;-73
2021/10/24 12:58:51;;;;;;;;;;;14.80;59.30;;;;;;5004321;28;19986;-79
2021/10/24 13:01:21;;;;;;;;;;;14.80;58.20;;;;;;5000846;28;20017;-80
2021/10/24 13:03:47;;;;;;;;;;;14.60;58.90;;;;;;5000869;28;20022;-76
2021/10/24 13:06:14;;;;;;;;;;;14.60;59.80;;;;;;4999716;28;19925;-77
2021/10/24 13:08:41;;;;;;;;;;;14.70;59.20;;;;;;5002413;28;19926;-77
2021/10/24 13:11:09;;;;;;;;;;;14.80;59.60;;;;;;4993728;28;19930;-74
2021/10/24 13:13:36;;;;;;;;;;;14.80;60.10;;;;;;5001379;28;19932;-77
2021/10/24 13:16:02;;;;;;;;;;;14.90;60.20;;;;;;5002514;28;19925;-74
2021/10/24 13:18:29;;;;;;;;;;;14.70;58.50;;;;;;5003188;28;19936;-74
2021/10/24 13:21:01;;;;;;;;;;;14.60;58.30;;;;;;4999330;28;19926;-75
2021/10/24 13:23:28;;;;;;;;;;;14.60;58.40;;;;;;5001435;28;19973;-76
2021/10/24 13:25:55;;;;;;;;;;;14.50;58.60;;;;;;5000605;28;19944;-74
2021/10/24 13:28:24;;;;;;;;;;;14.50;58.80;;;;;;5002972;28;20388;-75
2021/10/24 13:30:51;;;;;;;;;;;14.60;58.70;;;;;;4996218;28;20376;-77
2021/10/24 13:33:18;;;;;;;;;;;14.70;58.50;;;;;;5005491;28;19926;-78
2021/10/24 13:35:44;;;;;;;;;;;14.70;58.80;;;;;;5003277;28;19980;-77
2021/10/24 13:38:11;;;;;;;;;;;14.80;58.40;;;;;;5007063;28;19926;-76
2021/10/24 13:40:38;;;;;;;;;;;14.70;58.80;;;;;;5004088;28;19925;-73
2021/10/24 13:43:05;;;;;;;;;;;14.60;58.60;;;;;;5007408;28;19971;-74
2021/10/24 13:45:35;;;;;;;;;;;14.60;58.90;;;;;;5002757;28;20004;-73
2021/10/24 13:48:04;;;;;;;;;;;14.70;59.20;;;;;;5003735;28;19957;-73
2021/10/24 13:50:31;;;;;;;;;;;14.80;59.70;;;;;;5003877;28;19926;-75
2021/10/24 13:52:58;;;;;;;;;;;14.80;59.50;;;;;;5008591;28;19932;-72
2021/10/24 13:55:24;;;;;;;;;;;14.80;59.10;;;;;;5001968;28;19933;-75
2021/10/24 13:57:51;;;;;;;;;;;14.60;59.10;;;;;;5007145;28;19926;-74
2021/10/24 14:00:18;;;;;;;;;;;14.50;59.10;;;;;;5005529;28;19925;-73
2021/10/24 14:02:51;;;;;;;;;;;14.50;59.30;;;;;;5009633;28;20384;-78
2021/10/24 14:05:17;;;;;;;;;;;14.50;59.50;;;;;;5005616;28;20345;-73
2021/10/24 14:07:44;;;;;;;;;;;14.40;58.80;;;;;;5002325;28;20283;-72
2021/10/24 14:10:12;;;;;;;;;;;14.40;59.10;;;;;;5002457;28;19933;-72
2021/10/24 14:12:38;;;;;;;;;;;14.30;60.00;;;;;;5007206;28;20023;-72
2021/10/24 14:15:08;;;;;;;;;;;14.40;60.50;;;;;;5004702;28;19925;-73
2021/10/24 14:17:35;;;;;;;;;;;14.40;60.10;;;;;;5000157;28;19933;-72
2021/10/24 14:20:04;;;;;;;;;;;14.40;60.20;;;;;;5006277;28;19926;-73
2021/10/24 14:22:31;;;;;;;;;;;14.50;60.70;;;;;;5002714;28;20351;-73
2021/10/24 14:24:57;;;;;;;;;;;14.50;61.30;;;;;;5004094;28;19944;-74
2021/10/24 14:27:24;;;;;;;;;;;14.50;60.90;;;;;;5000874;28;19932;-73
2021/10/24 14:29:51;;;;;;;;;;;14.50;61.70;;;;;;5005199;28;19939;-74